createdAt,value
2023-04-17T00:00:52.951Z,27.95
2023-04-17T00:05:56.799Z,25.65
2023-04-17T00:11:07.062Z,24.48
2023-04-17T00:16:13.913Z,22.85
2023-04-17T00:21:15.786Z,21.38
2023-04-17T00:26:17.497Z,21.48
2023-04-17T00:31:19.496Z,19.10
2023-04-17T00:36:21.390Z,19.55
2023-04-17T00:41:23.257Z,22.85
2023-04-17T00:46:28.015Z,19.95
2023-04-17T00:51:29.767Z,21.77
2023-04-17T00:56:31.906Z,23.98
2023-04-17T01:01:33.759Z,21.98
2023-04-17T01:06:36.539Z,24.90
2023-04-17T01:11:39.337Z,24.27
2023-04-17T01:16:42.177Z,23.30
2023-04-17T01:21:46.168Z,23.65
2023-04-17T01:26:47.940Z,23.65
2023-04-17T01:31:50.419Z,18.92
2023-04-17T01:36:52.166Z,19.15
2023-04-17T01:41:54.365Z,18.27
2023-04-17T01:46:56.669Z,17.25
2023-04-17T01:51:58.268Z,21.58
2023-04-17T01:57:01.318Z,21.48
2023-04-17T02:02:03.112Z,17.48
2023-04-17T02:07:04.946Z,17.10
2023-04-17T02:12:07.987Z,19.00
2023-04-17T02:17:09.626Z,21.83
2023-04-17T02:22:11.213Z,20.10
2023-04-17T02:27:12.945Z,19.42
2023-04-17T02:32:18.383Z,21.02
2023-04-17T02:37:24.226Z,23.33
2023-04-17T02:42:27.461Z,24.73
2023-04-17T02:47:33.666Z,26.48
2023-04-17T02:52:37.454Z,22.42
2023-04-17T02:57:39.294Z,25.48
2023-04-17T03:02:41.552Z,27.73
2023-04-17T03:07:43.305Z,22.35
2023-04-17T03:12:45.171Z,20.55
2023-04-17T03:17:47.983Z,22.73
2023-04-17T03:22:51.972Z,21.27
2023-04-17T03:27:53.639Z,22.45
2023-04-17T03:32:58.970Z,19.75
2023-04-17T03:38:04.425Z,24.25
2023-04-17T03:43:07.418Z,20.63
2023-04-17T03:48:09.271Z,18.52
2023-04-17T03:53:12.559Z,21.70
2023-04-17T03:58:14.634Z,19.70
2023-04-17T04:03:16.514Z,19.80
2023-04-17T04:08:18.499Z,19.58
2023-04-17T04:13:24.184Z,22.80
2023-04-17T04:18:30.792Z,21.10
2023-04-17T04:23:33.850Z,19.08
2023-04-17T04:28:36.147Z,21.67
2023-04-17T04:33:38.213Z,23.17
2023-04-17T04:38:40.464Z,22.65
2023-04-17T04:43:51.621Z,21.25
2023-04-17T04:48:53.422Z,23.52
2023-04-17T04:53:55.293Z,24.67
2023-04-17T04:58:58.520Z,20.30
2023-04-17T05:04:01.309Z,22.63
2023-04-17T05:09:04.517Z,21.23
2023-04-17T05:14:09.324Z,19.92
2023-04-17T05:19:14.984Z,22.42
2023-04-17T05:24:43.080Z,21.17
2023-04-17T05:29:44.989Z,20.73
2023-04-17T05:34:47.167Z,19.30
2023-04-17T05:39:50.103Z,23.42
2023-04-17T05:44:52.043Z,20.60
2023-04-17T05:49:57.491Z,20.35
2023-04-17T05:55:02.942Z,21.92
2023-04-17T06:00:13.125Z,21.17
2023-04-17T06:05:24.348Z,20.15
2023-04-17T06:10:29.291Z,27.08
2023-04-17T06:15:31.450Z,24.08
2023-04-17T06:20:33.324Z,24.33
2023-04-17T06:25:38.014Z,21.15
2023-04-17T06:30:39.792Z,31.17
2023-04-17T06:35:42.562Z,20.73
2023-04-17T06:40:53.249Z,21.25
2023-04-17T06:45:55.316Z,24.17
2023-04-17T06:50:56.986Z,27.70
2023-04-17T06:55:58.753Z,22.77
2023-04-17T07:01:00.462Z,24.83
2023-04-17T07:06:02.468Z,28.25
2023-04-17T07:11:04.164Z,25.58
2023-04-17T07:16:06.434Z,25.65
2023-04-17T07:21:08.337Z,24.00
2023-04-17T07:26:11.049Z,25.98
2023-04-17T07:31:12.722Z,29.38
2023-04-17T07:36:14.488Z,27.48
2023-04-17T07:41:16.331Z,29.33
2023-04-17T07:46:18.058Z,36.05
2023-04-17T07:51:19.796Z,31.67
2023-04-17T07:56:21.423Z,34.88
2023-04-17T08:01:23.163Z,30.15
2023-04-17T08:06:25.049Z,34.50
2023-04-17T08:11:26.708Z,31.20
2023-04-17T08:16:28.797Z,31.40
2023-04-17T08:21:31.177Z,26.98
2023-04-17T08:26:33.117Z,35.05
2023-04-17T08:31:39.965Z,28.50
2023-04-17T08:36:43.061Z,28.42
2023-04-17T08:42:11.912Z,30.77
2023-04-17T08:47:18.282Z,28.45
2023-04-17T08:52:19.983Z,30.35
2023-04-17T08:57:23.968Z,31.98
2023-04-17T09:02:27.617Z,31.33
2023-04-17T09:07:30.737Z,27.90
2023-04-17T09:12:32.326Z,27.88
2023-04-17T09:17:38.561Z,31.15
2023-04-17T09:22:41.231Z,29.45
2023-04-17T09:27:42.958Z,28.80
2023-04-17T09:32:44.704Z,25.55
2023-04-17T09:37:59.169Z,24.35
2023-04-17T09:43:03.857Z,24.90
2023-04-17T09:48:11.004Z,24.90
2023-04-17T09:53:13.902Z,21.75
2023-04-17T09:58:16.564Z,27.50
2023-04-17T10:03:18.558Z,22.88
2023-04-17T10:08:20.601Z,23.00
2023-04-17T10:13:27.253Z,24.80
2023-04-17T10:18:28.993Z,24.65
2023-04-17T10:23:33.317Z,24.23
2023-04-17T10:28:52.177Z,23.70
2023-04-17T10:33:54.396Z,22.58
2023-04-17T10:39:13.173Z,21.88
2023-04-17T10:44:15.063Z,22.70
2023-04-17T10:49:16.850Z,21.60
2023-04-17T10:54:18.572Z,23.00
2023-04-17T10:59:22.118Z,22.58
2023-04-17T11:04:27.235Z,25.65
2023-04-17T11:09:29.639Z,24.65
2023-04-17T11:14:32.126Z,20.27
2023-04-17T11:19:33.851Z,24.35
2023-04-17T11:24:37.490Z,22.48
2023-04-17T11:29:39.097Z,19.00
2023-04-17T11:34:41.291Z,19.33
2023-04-17T11:39:43.515Z,19.73
2023-04-17T11:44:45.187Z,18.30
2023-04-17T11:49:47.150Z,18.13
2023-04-17T11:55:00.450Z,19.75
2023-04-17T12:00:12.310Z,19.77
2023-04-17T12:05:15.945Z,22.70
2023-04-17T12:10:18.355Z,19.67
2023-04-17T12:15:19.939Z,14.05
2023-04-17T12:20:21.550Z,16.48
2023-04-17T12:25:24.514Z,17.98
2023-04-17T12:30:29.460Z,18.75
2023-04-17T12:35:33.517Z,16.90
2023-04-17T12:40:35.106Z,19.17
2023-04-17T12:45:45.723Z,22.52
2023-04-17T12:50:47.459Z,14.50
2023-04-17T12:55:49.253Z,20.23
2023-04-17T13:00:51.084Z,20.48
2023-04-17T13:06:03.647Z,21.13
2023-04-17T13:11:28.705Z,11.23
2023-04-17T13:17:01.006Z,9.63
2023-04-17T13:22:41.739Z,22.92
2023-04-17T13:29:00.261Z,24.42
2023-04-17T13:35:23.702Z,14.18
2023-04-17T13:41:15.520Z,9.88
2023-04-17T13:46:24.426Z,17.13
2023-04-17T13:51:27.291Z,15.23
2023-04-17T13:56:29.396Z,17.17
2023-04-17T14:01:31.040Z,16.80
2023-04-17T14:06:37.484Z,14.73
2023-04-17T14:11:39.301Z,17.45
2023-04-17T14:16:41.364Z,19.67
2023-04-17T14:21:43.100Z,17.27
2023-04-17T14:26:44.896Z,21.90
2023-04-17T14:31:46.740Z,12.77
2023-04-17T14:36:48.809Z,18.60
2023-04-17T14:41:50.604Z,15.35
2023-04-17T14:46:52.494Z,18.92
2023-04-17T14:51:55.005Z,18.58
2023-04-17T14:56:57.848Z,22.17
2023-04-17T15:01:59.693Z,22.75
2023-04-17T15:07:01.433Z,19.55
2023-04-17T15:12:03.150Z,16.90
2023-04-17T15:17:07.676Z,18.65
2023-04-17T15:22:09.367Z,18.75
2023-04-17T15:27:11.641Z,19.25
2023-04-17T15:32:13.476Z,19.80
2023-04-17T15:37:15.234Z,17.48
2023-04-17T15:42:16.924Z,19.77
2023-04-17T15:47:18.602Z,17.15
2023-04-17T15:52:20.586Z,17.05
2023-04-17T15:57:23.536Z,19.77
2023-04-17T16:02:26.113Z,17.33
2023-04-17T16:07:27.812Z,23.20
2023-04-17T16:12:29.450Z,19.65
2023-04-17T16:17:31.091Z,18.27
2023-04-17T16:22:32.876Z,18.63
2023-04-17T16:27:34.805Z,17.92
2023-04-17T16:32:37.632Z,16.05
2023-04-17T16:37:39.658Z,18.67
2023-04-17T16:42:41.278Z,18.95
2023-04-17T16:47:42.968Z,19.35
2023-04-17T16:52:44.695Z,17.52
2023-04-17T16:57:47.923Z,21.35
2023-04-17T17:02:49.759Z,16.67
2023-04-17T17:07:51.510Z,17.77
2023-04-17T17:12:53.355Z,16.38
2023-04-17T17:17:55.133Z,18.73
2023-04-17T17:22:56.788Z,35.45
2023-04-17T17:27:58.405Z,23.50
2023-04-17T17:33:00.483Z,32.45
2023-04-17T17:38:02.242Z,29.65
2023-04-17T17:43:03.904Z,24.92
2023-04-17T17:48:06.280Z,21.17
2023-04-17T17:53:07.966Z,21.30
2023-04-17T17:58:09.645Z,23.30
2023-04-17T18:03:11.524Z,19.83
2023-04-17T18:08:14.352Z,19.92
2023-04-17T18:13:16.144Z,22.05
2023-04-17T18:18:17.808Z,21.42
2023-04-17T18:23:19.511Z,20.95
2023-04-17T18:28:21.286Z,20.23
2023-04-17T18:33:23.036Z,18.85
2023-04-17T18:38:25.525Z,19.75
2023-04-17T18:43:28.828Z,22.70
2023-04-17T18:48:30.743Z,19.02
2023-04-17T18:53:32.663Z,19.85
2023-04-17T18:58:34.235Z,18.23
2023-04-17T19:03:39.883Z,20.90
2023-04-17T19:08:41.862Z,17.90
2023-04-17T19:13:45.098Z,20.02
2023-04-17T19:18:46.843Z,17.98
2023-04-17T19:23:49.605Z,18.88
2023-04-17T19:28:51.385Z,18.73
2023-04-17T19:33:56.123Z,18.75
2023-04-17T19:38:59.719Z,21.92
2023-04-17T19:44:01.442Z,21.33
2023-04-17T19:49:03.327Z,19.42
2023-04-17T19:54:05.053Z,20.88
2023-04-17T19:59:12.776Z,21.70
2023-04-17T20:04:16.922Z,19.45
2023-04-17T20:09:19.361Z,20.48
2023-04-17T20:14:21.350Z,20.90
2023-04-17T20:19:23.874Z,17.92
2023-04-17T20:24:25.542Z,17.30
2023-04-17T20:29:27.335Z,20.25
2023-04-17T20:34:29.064Z,17.48
2023-04-17T20:39:30.828Z,19.15
2023-04-17T20:44:32.845Z,17.00
2023-04-17T20:49:34.576Z,17.75
2023-04-17T20:54:38.184Z,17.33
2023-04-17T20:59:39.850Z,14.27
2023-04-17T21:04:57.738Z,16.15
2023-04-17T21:09:59.487Z,16.23
2023-04-17T21:15:01.210Z,16.48
2023-04-17T21:20:09.568Z,16.27
2023-04-17T21:25:11.322Z,17.05
2023-04-17T21:30:13.170Z,18.77
2023-04-17T21:35:14.849Z,14.18
2023-04-17T21:40:17.168Z,16.33
2023-04-17T21:45:19.545Z,16.38
2023-04-17T21:50:21.170Z,17.63
2023-04-17T21:55:22.854Z,17.85
2023-04-17T22:00:24.777Z,16.98
2023-04-17T22:05:26.806Z,14.02
2023-04-17T22:10:29.268Z,14.50
2023-04-17T22:15:30.975Z,14.93
2023-04-17T22:20:32.739Z,13.10
2023-04-17T22:25:34.512Z,15.55
2023-04-17T22:30:36.160Z,14.25
2023-04-17T22:35:37.929Z,14.85
2023-04-17T22:40:40.650Z,15.38
2023-04-17T22:45:42.520Z,15.55
2023-04-17T22:50:45.563Z,16.33
2023-04-17T22:55:47.190Z,15.95
2023-04-17T23:00:49.083Z,16.80
2023-04-17T23:05:53.432Z,17.02
2023-04-17T23:10:57.741Z,15.65
2023-04-17T23:15:59.454Z,19.15
2023-04-17T23:21:01.109Z,16.30
2023-04-17T23:26:02.798Z,17.23
2023-04-17T23:31:07.941Z,17.10
2023-04-17T23:36:09.664Z,16.70
2023-04-17T23:41:11.690Z,18.08
2023-04-17T23:46:13.777Z,20.27
2023-04-17T23:51:15.506Z,17.88
2023-04-17T23:56:18.135Z,16.25
